Time;durP1;ratioP1;P1;durP2;ratioP2;P2;SDS_P1;SDS_P2;PMS_P1;PMS_P2;Temp;Humidity;BMP_temperature;BMP_pressure;BME280_temperature;BME280_humidity;BME280_pressure;Samples;Min_cycle;Max_cycle;Signal;HPM_P1;HPM_P2
2022/06/27 00:02:23;;;;;;;4.65;1.00;;;26.00;71.70;;;;;;5048835;28;20535;-61
2022/06/27 00:04:48;;;;;;;6.55;1.02;;;25.90;71.70;;;;;;5051518;28;20029;-62
2022/06/27 00:07:14;;;;;;;3.10;1.20;;;25.90;71.60;;;;;;5041061;28;20036;-61
2022/06/27 00:09:39;;;;;;;2.95;1.08;;;25.90;71.30;;;;;;5037665;28;20108;-62
2022/06/27 00:12:06;;;;;;;2.05;0.93;;;25.90;71.20;;;;;;5041989;28;20681;-61
2022/06/27 00:14:31;;;;;;;3.45;1.23;;;25.80;71.00;;;;;;5031224;28;20047;-61
2022/06/27 00:16:57;;;;;;;1.00;0.80;;;25.70;70.90;;;;;;5050829;28;20041;-62
2022/06/27 00:19:22;;;;;;;1.92;1.08;;;25.80;70.90;;;;;;5042988;28;20357;-61
2022/06/27 00:21:48;;;;;;;6.18;1.10;;;25.90;70.60;;;;;;5027336;28;20033;-62
2022/06/27 00:24:13;;;;;;;1.88;1.00;;;25.80;70.40;;;;;;5049964;28;20489;-61
2022/06/27 00:26:39;;;;;;;3.03;0.85;;;25.80;70.20;;;;;;5051634;28;20041;-61
2022/06/27 00:29:04;;;;;;;1.98;0.88;;;25.80;70.30;;;;;;5035379;28;20381;-62
2022/06/27 00:31:30;;;;;;;1.77;0.77;;;25.70;70.20;;;;;;5034769;28;20056;-61
2022/06/27 00:33:55;;;;;;;3.55;1.05;;;25.70;70.00;;;;;;5045556;28;20040;-61
2022/06/27 00:36:21;;;;;;;3.58;0.90;;;25.70;70.20;;;;;;5051427;28;20460;-61
2022/06/27 00:38:46;;;;;;;5.57;1.00;;;25.70;70.10;;;;;;5055119;28;20032;-62
2022/06/27 00:41:12;;;;;;;1.35;0.98;;;25.60;70.10;;;;;;5044890;28;20440;-61
2022/06/27 00:43:37;;;;;;;3.15;1.00;;;25.60;70.10;;;;;;5054751;28;20472;-60
2022/06/27 00:46:03;;;;;;;6.25;1.40;;;25.60;70.10;;;;;;5053447;28;20029;-61
2022/06/27 00:48:28;;;;;;;6.85;1.45;;;25.60;70.10;;;;;;5048560;28;20025;-61
2022/06/27 00:50:56;;;;;;;9.57;1.40;;;25.50;69.90;;;;;;5042925;28;20507;-61
2022/06/27 00:53:22;;;;;;;10.18;1.58;;;25.50;70.00;;;;;;5050137;28;20101;-61
2022/06/27 00:55:47;;;;;;;5.68;1.40;;;25.60;70.00;;;;;;5044110;28;20139;-62
2022/06/27 00:58:13;;;;;;;5.38;1.40;;;25.50;69.80;;;;;;5027126;28;20017;-62
2022/06/27 01:00:38;;;;;;;5.18;1.80;;;25.40;69.90;;;;;;5050387;28;20527;-61
2022/06/27 01:03:04;;;;;;;3.65;1.13;;;25.40;70.00;;;;;;5026733;28;20490;-61
2022/06/27 01:05:30;;;;;;;4.07;1.35;;;25.40;70.00;;;;;;5027634;28;20129;-61
2022/06/27 01:07:55;;;;;;;5.75;1.10;;;25.40;70.10;;;;;;5041162;28;20270;-61
2022/06/27 01:10:21;;;;;;;5.05;1.30;;;25.40;70.10;;;;;;5040713;28;20111;-61
2022/06/27 01:12:47;;;;;;;3.63;1.10;;;25.30;70.00;;;;;;5059033;28;20043;-62
2022/06/27 01:15:13;;;;;;;2.72;1.30;;;25.30;70.10;;;;;;5026191;28;20024;-61
2022/06/27 01:17:39;;;;;;;4.50;1.10;;;25.30;70.20;;;;;;5037916;28;20049;-62
2022/06/27 01:20:05;;;;;;;2.50;1.20;;;25.20;70.10;;;;;;5037929;28;20045;-61
2022/06/27 01:22:31;;;;;;;5.85;1.20;;;25.20;70.10;;;;;;5040495;28;20472;-62
2022/06/27 01:24:56;;;;;;;2.45;1.00;;;25.20;70.10;;;;;;5022613;28;20055;-61
2022/06/27 01:27:22;;;;;;;2.72;1.48;;;25.20;70.20;;;;;;5006282;28;20040;-61
2022/06/27 01:29:47;;;;;;;5.28;1.25;;;25.20;70.10;;;;;;5041367;28;20033;-61
2022/06/27 01:32:13;;;;;;;7.45;1.10;;;25.20;70.10;;;;;;5042455;28;20056;-62
2022/06/27 01:34:38;;;;;;;2.80;1.15;;;25.30;70.30;;;;;;5038554;28;20507;-62
2022/06/27 01:37:04;;;;;;;1.92;0.75;;;25.10;70.20;;;;;;5041996;28;20544;-62
2022/06/27 01:39:30;;;;;;;2.28;1.00;;;25.10;70.30;;;;;;5041599;28;20033;-61
2022/06/27 01:41:59;;;;;;;3.67;1.20;;;25.10;70.40;;;;;;5007656;28;20115;-61
2022/06/27 01:44:26;;;;;;;5.13;1.30;;;25.10;70.40;;;;;;5040052;28;20053;-61
2022/06/27 01:47:06;;;;;;;3.70;1.10;;;25.00;70.40;;;;;;5040599;28;20048;-62
2022/06/27 01:49:32;;;;;;;1.90;1.25;;;25.00;70.50;;;;;;5042184;28;21312;-61
2022/06/27 01:51:58;;;;;;;3.08;0.90;;;25.00;70.60;;;;;;5039829;28;20043;-60
2022/06/27 01:54:24;;;;;;;1.50;0.88;;;24.90;70.70;;;;;;5042113;28;20028;-61
2022/06/27 01:56:50;;;;;;;2.03;1.02;;;24.90;70.90;;;;;;5041208;28;20044;-61
2022/06/27 01:59:16;;;;;;;1.98;1.20;;;24.90;71.10;;;;;;5040010;28;20051;-61
2022/06/27 02:01:42;;;;;;;1.63;0.80;;;24.80;71.10;;;;;;5040182;28;20067;-61
2022/06/27 02:04:08;;;;;;;1.67;0.98;;;24.80;71.30;;;;;;5038267;28;20469;-61
2022/06/27 02:06:33;;;;;;;3.00;0.80;;;24.80;71.60;;;;;;5041506;28;20459;-60
2022/06/27 02:08:59;;;;;;;2.08;0.90;;;24.80;71.50;;;;;;5041443;28;20138;-61
2022/06/27 02:11:25;;;;;;;1.27;0.68;;;24.80;71.60;;;;;;5022901;28;20199;-59
2022/06/27 02:13:51;;;;;;;3.45;0.70;;;24.70;71.70;;;;;;5006591;28;20037;-61
2022/06/27 02:16:18;;;;;;;1.25;0.70;;;24.70;71.80;;;;;;5046512;28;20687;-62
2022/06/27 02:18:44;;;;;;;0.70;0.57;;;24.70;71.90;;;;;;5026972;28;20036;-61
2022/06/27 02:21:14;;;;;;;1.55;0.80;;;24.60;72.10;;;;;;5049672;28;20052;-61
2022/06/27 02:23:40;;;;;;;0.88;0.68;;;24.70;71.90;;;;;;5041550;28;20077;-61
2022/06/27 02:26:07;;;;;;;1.52;0.80;;;24.70;71.90;;;;;;5026069;28;20344;-61
2022/06/27 02:28:32;;;;;;;0.90;0.60;;;24.70;71.90;;;;;;5025255;28;20112;-60
2022/06/27 02:30:58;;;;;;;1.40;0.90;;;24.70;72.10;;;;;;5043745;28;20025;-61
2022/06/27 02:33:31;;;;;;;0.95;0.68;;;24.70;72.10;;;;;;5043156;28;20111;-61
2022/06/27 02:35:56;;;;;;;0.63;0.50;;;24.60;72.10;;;;;;5043773;28;20033;-61
2022/06/27 02:38:22;;;;;;;1.90;0.65;;;24.60;72.40;;;;;;5043241;28;20067;-61
2022/06/27 02:40:47;;;;;;;0.70;0.50;;;24.60;72.50;;;;;;5041793;28;20484;-61
2022/06/27 02:43:13;;;;;;;1.00;0.70;;;24.50;72.60;;;;;;5025015;28;20039;-61
2022/06/27 02:45:39;;;;;;;0.95;0.50;;;24.50;72.80;;;;;;5043753;28;20040;-61
2022/06/27 02:48:05;;;;;;;0.50;0.40;;;24.50;72.90;;;;;;5052638;28;20488;-61
2022/06/27 02:50:32;;;;;;;0.73;0.55;;;24.40;73.00;;;;;;5025078;28;20445;-61
2022/06/27 02:52:59;;;;;;;0.93;0.57;;;24.40;73.10;;;;;;5053059;28;20067;-61
2022/06/27 02:55:31;;;;;;;0.95;0.50;;;24.40;73.20;;;;;;5023874;28;20024;-61
2022/06/27 02:58:07;;;;;;;1.30;0.50;;;24.40;73.30;;;;;;5042116;28;20036;-61
2022/06/27 03:00:32;;;;;;;;;;;24.40;73.40;;;;;;5026274;28;20112;-61
2022/06/27 03:02:58;;;;;;;;;;;24.30;73.60;;;;;;5040589;28;19904;-61
2022/06/27 03:05:24;;;;;;;1.90;0.47;;;24.30;73.80;;;;;;5042985;28;20539;-61
2022/06/27 03:07:50;;;;;;;1.25;0.40;;;24.20;73.80;;;;;;5040094;28;20021;-62
2022/06/27 03:10:16;;;;;;;0.68;0.40;;;24.20;74.00;;;;;;5010583;28;20036;-61
2022/06/27 03:12:41;;;;;;;0.43;0.43;;;24.20;74.20;;;;;;5053665;28;20076;-61
2022/06/27 03:15:08;;;;;;;0.88;0.38;;;24.10;74.20;;;;;;5048163;28;20033;-61
2022/06/27 03:17:33;;;;;;;3.22;0.63;;;24.10;74.50;;;;;;5054451;28;20513;-61
2022/06/27 03:19:59;;;;;;;1.00;0.50;;;24.00;74.50;;;;;;5061112;28;20274;-60
2022/06/27 03:22:24;;;;;;;1.10;0.82;;;24.00;74.70;;;;;;5043566;28;20020;-61
2022/06/27 03:24:50;;;;;;;0.98;0.80;;;24.00;74.80;;;;;;5062312;28;20851;-61
2022/06/27 03:27:15;;;;;;;0.95;0.80;;;24.00;74.90;;;;;;5061476;28;20037;-60
2022/06/27 03:29:41;;;;;;;0.70;0.70;;;24.00;75.00;;;;;;5059284;28;20720;-62
2022/06/27 03:32:07;;;;;;;0.88;0.60;;;23.90;75.00;;;;;;5041978;28;20048;-61
2022/06/27 03:34:32;;;;;;;7.00;0.85;;;23.90;75.10;;;;;;5059321;28;20028;-61
2022/06/27 03:36:58;;;;;;;1.48;0.70;;;23.90;75.30;;;;;;5044512;28;20078;-61
2022/06/27 03:39:24;;;;;;;0.90;0.70;;;23.90;75.30;;;;;;5026440;28;20428;-62
2022/06/27 03:41:50;;;;;;;0.85;0.75;;;23.90;75.50;;;;;;5060396;28;20334;-61
2022/06/27 03:44:16;;;;;;;0.77;0.60;;;23.80;75.50;;;;;;5041534;28;20037;-62
2022/06/27 03:46:41;;;;;;;0.77;0.55;;;23.80;75.60;;;;;;5041280;28;20035;-62
2022/06/27 03:51:52;;;;;;;0.63;0.60;;;23.70;75.80;;;;;;5064299;28;20440;-62
2022/06/27 03:54:17;;;;;;;1.40;0.63;;;23.70;75.90;;;;;;5029653;28;20024;-61
2022/06/27 03:56:43;;;;;;;0.60;0.50;;;23.70;76.00;;;;;;5063163;28;20035;-60
2022/06/27 03:59:08;;;;;;;0.60;0.60;;;23.70;75.90;;;;;;5029644;28;20036;-61
2022/06/27 04:01:34;;;;;;;1.00;0.60;;;23.70;76.10;;;;;;5029521;28;20490;-62
2022/06/27 04:03:59;;;;;;;1.30;0.65;;;23.70;76.10;;;;;;5030617;28;20603;-62
2022/06/27 04:06:25;;;;;;;1.25;0.50;;;23.60;76.20;;;;;;5064011;28;20028;-61
2022/06/27 04:08:50;;;;;;;1.45;0.90;;;23.60;76.30;;;;;;5063545;28;20034;-61
2022/06/27 04:11:16;;;;;;;1.15;0.43;;;23.60;76.40;;;;;;5062133;28;20078;-62
2022/06/27 04:13:45;;;;;;;2.67;0.63;;;23.60;76.60;;;;;;5035919;28;20040;-60
2022/06/27 04:16:10;;;;;;;1.08;0.50;;;23.50;76.70;;;;;;5007058;28;20044;-61
2022/06/27 04:18:36;;;;;;;1.58;0.50;;;23.60;76.70;;;;;;5018247;28;20194;-62
2022/06/27 04:21:01;;;;;;;0.55;0.40;;;23.50;76.70;;;;;;5044404;28;20648;-61
2022/06/27 04:23:27;;;;;;;0.73;0.60;;;23.50;76.90;;;;;;5007578;28;20645;-61
2022/06/27 04:25:53;;;;;;;3.60;0.55;;;23.50;77.00;;;;;;5024782;28;20461;-62
2022/06/27 04:28:18;;;;;;;2.90;1.00;;;23.50;77.20;;;;;;5022578;28;20393;-61
2022/06/27 04:30:44;;;;;;;29.15;3.45;;;23.40;77.20;;;;;;5022729;28;20024;-61
2022/06/27 04:33:10;;;;;;;10.73;2.28;;;23.40;77.40;;;;;;5044496;28;20120;-61
2022/06/27 04:35:36;;;;;;;25.38;2.15;;;23.40;77.50;;;;;;5004565;28;20958;-61
2022/06/27 04:38:02;;;;;;;20.38;2.25;;;23.40;77.60;;;;;;5023945;28;20309;-61
2022/06/27 04:40:27;;;;;;;7.88;2.00;;;23.30;77.60;;;;;;5024500;28;20067;-61
2022/06/27 04:42:53;;;;;;;12.68;2.15;;;23.30;77.60;;;;;;5022299;28;20132;-62
2022/06/27 04:45:18;;;;;;;9.15;1.67;;;23.30;77.70;;;;;;5044017;28;20393;-61
2022/06/27 04:47:44;;;;;;;9.20;1.80;;;23.30;77.80;;;;;;5026170;28;20043;-61
2022/06/27 04:50:11;;;;;;;9.30;1.52;;;23.30;77.80;;;;;;5022560;28;20040;-61
2022/06/27 04:52:40;;;;;;;9.32;1.45;;;23.30;77.90;;;;;;5024744;28;20055;-61
2022/06/27 04:55:08;;;;;;;5.63;1.50;;;23.30;77.90;;;;;;5024425;28;20036;-61
2022/06/27 04:57:34;;;;;;;15.95;1.83;;;23.20;77.90;;;;;;5010154;28;20032;-60
2022/06/27 05:00:01;;;;;;;8.57;1.67;;;23.30;77.90;;;;;;5024641;28;20036;-61
2022/06/27 05:02:26;;;;;;;8.85;1.80;;;23.30;78.10;;;;;;5021922;28;20044;-60
2022/06/27 05:04:52;;;;;;;5.47;1.27;;;23.30;78.10;;;;;;5025134;28;20021;-61
2022/06/27 05:07:17;;;;;;;9.05;1.42;;;23.30;78.60;;;;;;5026543;28;20360;-61
2022/06/27 05:09:45;;;;;;;10.52;1.20;;;23.20;79.00;;;;;;5026652;28;20033;-61
2022/06/27 05:12:10;;;;;;;6.28;1.02;;;23.20;79.30;;;;;;5026359;28;20025;-62
2022/06/27 05:14:36;;;;;;;6.90;1.33;;;23.10;79.50;;;;;;5044159;28;20400;-62
2022/06/27 05:17:02;;;;;;;10.43;1.60;;;23.10;79.80;;;;;;5043663;28;20509;-61
2022/06/27 05:19:27;;;;;;;6.15;1.10;;;23.10;79.90;;;;;;5050833;28;20033;-61
2022/06/27 05:21:53;;;;;;;7.07;1.02;;;23.00;80.00;;;;;;5051594;28;20032;-61
2022/06/27 05:24:18;;;;;;;2.85;1.25;;;23.00;80.20;;;;;;5054470;28;20538;-61
2022/06/27 05:26:45;;;;;;;3.90;1.17;;;22.90;80.40;;;;;;5053908;28;20484;-61
2022/06/27 05:29:11;;;;;;;3.75;1.30;;;22.90;80.60;;;;;;5042176;28;20141;-61
2022/06/27 05:31:37;;;;;;;3.67;0.70;;;22.80;80.80;;;;;;5034490;28;20178;-61
2022/06/27 05:34:02;;;;;;;3.00;0.80;;;22.90;81.20;;;;;;5054627;28;20036;-61
2022/06/27 05:36:28;;;;;;;5.13;1.10;;;22.80;81.40;;;;;;5035251;28;20399;-60
2022/06/27 05:38:55;;;;;;;10.63;1.88;;;22.80;81.80;;;;;;5047630;28;20020;-60
2022/06/27 05:41:21;;;;;;;19.30;3.22;;;22.70;82.00;;;;;;5040917;28;20048;-61
2022/06/27 05:43:46;;;;;;;6.03;1.08;;;22.70;82.00;;;;;;5049315;28;20143;-61
2022/06/27 05:46:12;;;;;;;2.75;0.90;;;22.70;82.20;;;;;;5045718;28;20105;-61
2022/06/27 05:48:38;;;;;;;4.93;1.00;;;22.70;82.60;;;;;;5039496;28;20025;-61
2022/06/27 05:51:03;;;;;;;13.90;1.25;;;22.60;82.60;;;;;;5052892;28;20043;-62
2022/06/27 05:53:30;;;;;;;18.77;2.40;;;22.60;82.70;;;;;;5042129;28;20108;-61
2022/06/27 05:55:55;;;;;;;14.40;1.92;;;22.70;82.70;;;;;;5039433;28;20037;-61
2022/06/27 05:58:21;;;;;;;13.88;1.98;;;22.60;82.70;;;;;;5049843;28;20041;-61
2022/06/27 06:00:46;;;;;;;11.25;1.90;;;22.70;82.70;;;;;;5039924;28;20028;-61
2022/06/27 06:03:12;;;;;;;10.65;1.25;;;22.60;82.60;;;;;;5040634;28;20163;-62
2022/06/27 06:05:37;;;;;;;10.52;1.20;;;22.70;82.80;;;;;;5040026;28;20295;-62
2022/06/27 06:08:04;;;;;;;10.88;1.20;;;22.60;82.90;;;;;;5040532;28;20048;-61
2022/06/27 06:10:31;;;;;;;16.88;2.03;;;22.70;83.30;;;;;;5049598;28;20047;-62
2022/06/27 06:12:58;;;;;;;8.88;1.60;;;22.60;83.40;;;;;;5025532;28;20030;-61
2022/06/27 06:15:23;;;;;;;10.60;1.60;;;22.60;83.60;;;;;;5040336;28;20120;-61
2022/06/27 06:17:49;;;;;;;9.50;1.45;;;22.60;83.80;;;;;;5040516;28;20119;-61
2022/06/27 06:20:15;;;;;;;7.15;1.63;;;22.50;83.50;;;;;;5043166;28;20535;-61
2022/06/27 06:22:41;;;;;;;3.67;1.05;;;22.60;83.70;;;;;;5036094;28;20031;-61
2022/06/27 06:25:07;;;;;;;4.18;1.02;;;22.60;83.70;;;;;;5049835;28;20024;-61
2022/06/27 06:27:35;;;;;;;4.43;1.00;;;22.60;84.00;;;;;;5047394;28;20029;-62
2022/06/27 06:30:02;;;;;;;4.90;1.45;;;22.60;83.70;;;;;;5046820;28;20025;-60
2022/06/27 06:32:28;;;;;;;8.80;1.52;;;22.50;84.00;;;;;;5046069;28;20511;-62
2022/06/27 06:34:54;;;;;;;8.80;1.50;;;22.50;84.20;;;;;;5023119;28;20036;-61
2022/06/27 06:37:20;;;;;;;5.30;1.00;;;22.50;84.10;;;;;;5039308;28;20441;-62
2022/06/27 06:39:46;;;;;;;7.55;1.27;;;22.60;84.00;;;;;;5039900;28;20122;-61
2022/06/27 06:42:11;;;;;;;8.77;1.35;;;22.60;83.90;;;;;;5038807;28;20021;-62
2022/06/27 06:44:37;;;;;;;5.45;1.02;;;22.70;84.00;;;;;;5021594;28;20017;-62
2022/06/27 06:47:03;;;;;;;5.88;1.17;;;22.70;84.10;;;;;;5051851;28;20037;-61
2022/06/27 06:49:29;;;;;;;3.97;1.52;;;22.70;84.30;;;;;;5040834;28;20107;-62
2022/06/27 06:51:55;;;;;;;5.30;1.10;;;22.70;84.30;;;;;;5007254;28;20178;-60
2022/06/27 06:54:20;;;;;;;6.82;1.30;;;22.70;84.10;;;;;;5026046;28;20523;-61
2022/06/27 06:56:48;;;;;;;6.65;1.10;;;22.80;84.00;;;;;;5046050;28;20526;-63
2022/06/27 06:59:14;;;;;;;10.70;1.75;;;22.80;84.30;;;;;;5023835;28;20187;-62
2022/06/27 07:01:41;;;;;;;6.38;0.85;;;22.80;84.00;;;;;;5057619;28;20117;-67
2022/06/27 07:04:07;;;;;;;4.72;1.13;;;22.80;84.00;;;;;;5043371;28;20082;-61
2022/06/27 07:06:33;;;;;;;5.93;1.17;;;22.80;84.50;;;;;;5048203;28;20052;-62
2022/06/27 07:09:00;;;;;;;6.50;0.95;;;22.90;84.20;;;;;;5034750;28;20029;-63
2022/06/27 07:11:29;;;;;;;2.97;0.75;;;22.90;84.20;;;;;;5020618;28;20025;-61
2022/06/27 07:13:55;;;;;;;160.25;14.35;;;22.90;84.50;;;;;;5040182;28;20041;-62
2022/06/27 07:16:21;;;;;;;87.68;11.00;;;22.90;84.40;;;;;;5056771;28;20582;-62
2022/06/27 07:18:48;;;;;;;19.13;2.28;;;22.90;84.40;;;;;;5023666;28;20049;-62
2022/06/27 07:21:18;;;;;;;10.88;1.50;;;23.00;84.50;;;;;;5028203;28;20043;-62
2022/06/27 07:23:46;;;;;;;4.25;1.10;;;22.90;84.40;;;;;;5028932;28;20395;-62
2022/06/27 07:26:11;;;;;;;15.07;2.30;;;23.00;84.30;;;;;;5061104;28;20056;-62
2022/06/27 07:28:37;;;;;;;8.70;1.40;;;23.00;84.40;;;;;;5046779;28;20033;-62
2022/06/27 07:31:08;;;;;;;10.38;1.25;;;23.00;84.40;;;;;;5044066;28;20029;-62
2022/06/27 07:33:36;;;;;;;46.38;4.88;;;23.00;84.40;;;;;;5038779;28;20036;-61
2022/06/27 07:36:02;;;;;;;34.40;3.67;;;23.10;84.60;;;;;;5045910;28;20039;-61
2022/06/27 07:38:28;;;;;;;9.18;1.73;;;23.10;84.50;;;;;;5064077;28;20025;-62
2022/06/27 07:40:53;;;;;;;10.02;1.70;;;23.10;84.30;;;;;;5062569;28;20577;-62
2022/06/27 07:43:19;;;;;;;11.73;1.42;;;23.10;84.50;;;;;;5041917;28;20036;-62
2022/06/27 07:45:44;;;;;;;21.25;2.13;;;23.10;84.40;;;;;;5028198;28;20028;-62
2022/06/27 07:48:10;;;;;;;10.98;2.05;;;23.10;84.50;;;;;;5061330;28;20056;-63
2022/06/27 07:50:40;;;;;;;23.75;2.17;;;23.10;84.50;;;;;;5062906;28;20021;-61
2022/06/27 07:53:14;;;;;;;10.07;2.33;;;23.20;84.80;;;;;;5064090;28;20591;-62
2022/06/27 07:55:43;;;;;;;9.43;2.00;;;23.10;84.30;;;;;;5042208;28;20024;-61
2022/06/27 07:58:14;;;;;;;31.83;4.22;;;23.10;84.30;;;;;;5060936;28;20341;-61
2022/06/27 08:00:41;;;;;;;21.35;2.58;;;23.20;84.20;;;;;;5063036;28;20362;-62
2022/06/27 08:05:51;;;;;;;11.95;1.90;;;23.20;84.30;;;;;;5059698;28;20043;-62
2022/06/27 08:08:17;;;;;;;12.70;2.33;;;23.20;84.20;;;;;;5026880;28;20060;-62
2022/06/27 08:10:43;;;;;;;18.85;2.10;;;23.20;83.80;;;;;;5059871;28;20588;-63
2022/06/27 08:13:08;;;;;;;27.67;3.08;;;23.20;83.60;;;;;;5061448;28;20731;-61
2022/06/27 08:15:34;;;;;;;17.70;2.20;;;23.20;83.70;;;;;;5021214;28;20037;-61
2022/06/27 08:18:00;;;;;;;17.13;3.55;;;23.30;83.90;;;;;;5051463;28;20052;-63
2022/06/27 08:20:26;;;;;;;19.42;2.88;;;23.30;83.60;;;;;;5036809;28;20036;-61
2022/06/27 08:22:52;;;;;;;22.50;3.63;;;23.30;83.40;;;;;;5040717;28;20020;-63
2022/06/27 08:25:17;;;;;;;69.28;7.18;;;23.30;83.40;;;;;;5025939;28;20032;-62
2022/06/27 08:27:44;;;;;;;22.40;3.28;;;23.30;83.20;;;;;;5050489;28;20025;-61
2022/06/27 08:30:10;;;;;;;23.70;2.78;;;23.40;83.10;;;;;;5031352;28;20075;-62
2022/06/27 08:32:36;;;;;;;48.13;4.00;;;23.30;83.00;;;;;;5038147;28;20330;-62
2022/06/27 08:35:01;;;;;;;33.13;2.45;;;23.30;82.60;;;;;;5054108;28;20114;-64
2022/06/27 08:37:27;;;;;;;26.05;2.22;;;23.30;82.20;;;;;;5055419;28;20034;-62
2022/06/27 08:39:53;;;;;;;19.98;1.83;;;23.40;82.00;;;;;;5057790;28;20041;-63
2022/06/27 08:42:19;;;;;;;8.05;1.90;;;23.30;81.80;;;;;;5049676;28;20052;-61
2022/06/27 08:44:45;;;;;;;6.22;1.92;;;23.30;81.70;;;;;;5054228;28;20380;-62
2022/06/27 08:47:11;;;;;;;21.55;2.00;;;23.30;81.60;;;;;;5050791;28;20040;-63
2022/06/27 08:49:39;;;;;;;13.02;2.13;;;23.30;81.40;;;;;;5052211;28;20013;-61
2022/06/27 08:52:05;;;;;;;17.95;2.03;;;23.40;81.10;;;;;;5031738;28;20151;-62
2022/06/27 08:54:30;;;;;;;19.92;2.25;;;23.30;81.00;;;;;;5039807;28;21039;-62
2022/06/27 08:56:56;;;;;;;55.17;6.68;;;23.30;80.90;;;;;;5025150;28;20048;-61
2022/06/27 08:59:21;;;;;;;31.90;3.90;;;23.30;80.80;;;;;;5053787;28;20277;-62
2022/06/27 09:01:48;;;;;;;16.77;2.63;;;23.30;80.80;;;;;;5020809;28;20641;-63
2022/06/27 09:04:13;;;;;;;13.43;2.05;;;23.40;80.80;;;;;;5027652;28;20029;-61
2022/06/27 09:06:43;;;;;;;13.77;2.15;;;23.40;80.50;;;;;;5047733;28;20069;-62
2022/06/27 09:09:08;;;;;;;12.88;1.92;;;23.40;80.40;;;;;;5053106;28;20441;-61
2022/06/27 09:11:38;;;;;;;11.75;1.67;;;23.40;80.40;;;;;;5029170;28;20024;-62
2022/06/27 09:14:05;;;;;;;14.90;1.80;;;23.40;80.60;;;;;;5043309;28;20029;-63
2022/06/27 09:16:31;;;;;;;7.80;1.23;;;23.50;80.60;;;;;;5034525;28;20040;-62
2022/06/27 09:18:57;;;;;;;10.65;2.10;;;23.50;81.00;;;;;;5031473;28;20129;-65
2022/06/27 09:21:24;;;;;;;11.95;1.58;;;23.50;80.00;;;;;;5044991;28;20056;-62
2022/06/27 09:23:58;;;;;;;12.13;1.10;;;23.60;79.90;;;;;;5066245;28;20024;-62
2022/06/27 09:26:25;;;;;;;10.75;1.55;;;23.60;79.90;;;;;;5026911;28;20020;-62
2022/06/27 09:28:59;;;;;;;14.32;1.45;;;23.60;79.90;;;;;;5023464;28;20098;-62
2022/06/27 09:31:30;;;;;;;8.00;1.48;;;23.60;79.80;;;;;;5038166;28;20092;-62
2022/06/27 09:34:10;;;;;;;31.50;16.08;;;23.60;80.40;;;;;;5056322;28;20050;-62
2022/06/27 09:36:39;;;;;;;33.58;14.52;;;23.70;79.90;;;;;;5023120;28;20020;-62
2022/06/27 09:39:04;;;;;;;31.65;9.50;;;23.70;79.70;;;;;;5040458;28;20086;-61
2022/06/27 09:41:30;;;;;;;50.83;9.07;;;23.70;79.60;;;;;;5057425;28;20033;-61
2022/06/27 09:44:10;;;;;;;43.88;8.85;;;23.70;79.60;;;;;;5041029;28;20039;-63
2022/06/27 09:46:38;;;;;;;26.92;5.88;;;23.80;79.60;;;;;;5029013;28;20051;-63
2022/06/27 09:49:06;;;;;;;28.05;5.35;;;23.80;79.40;;;;;;5053417;28;20036;-61
2022/06/27 09:51:31;;;;;;;25.55;4.20;;;23.80;79.40;;;;;;5044168;28;20074;-61
2022/06/27 09:54:00;;;;;;;15.18;3.40;;;23.90;79.50;;;;;;5024071;28;20044;-62
2022/06/27 09:56:26;;;;;;;13.65;2.90;;;23.90;79.30;;;;;;5019367;28;20024;-62
2022/06/27 09:58:52;;;;;;;15.82;2.83;;;24.00;79.10;;;;;;5043837;28;20143;-62
2022/06/27 10:01:18;;;;;;;7.95;2.55;;;24.00;78.70;;;;;;5041128;28;20036;-62
2022/06/27 10:03:43;;;;;;;20.55;2.75;;;24.00;78.70;;;;;;5041797;28;20035;-62
2022/06/27 10:06:10;;;;;;;12.48;2.40;;;24.00;78.60;;;;;;5055304;28;20056;-62
2022/06/27 10:08:36;;;;;;;17.80;3.22;;;24.00;78.50;;;;;;5038859;28;20151;-61
2022/06/27 10:11:02;;;;;;;20.80;2.55;;;24.10;78.70;;;;;;5037495;28;20659;-62
2022/06/27 10:13:30;;;;;;;14.55;2.30;;;24.10;78.30;;;;;;5055713;28;20021;-61
2022/06/27 10:16:04;;;;;;;8.93;2.03;;;24.00;78.00;;;;;;5030449;28;20452;-61
2022/06/27 10:19:03;;;;;;;18.13;2.47;;;24.10;77.90;;;;;;5018032;28;20483;-61
2022/06/27 10:21:30;;;;;;;9.93;2.22;;;24.20;77.70;;;;;;5038277;28;20060;-61
2022/06/27 10:24:18;;;;;;;14.05;2.33;;;24.20;77.50;;;;;;5020352;28;20449;-62
2022/06/27 10:26:43;;;;;;;36.88;4.45;;;24.20;77.40;;;;;;5037985;28;20040;-62
2022/06/27 10:29:30;;;;;;;22.08;3.47;;;24.30;77.40;;;;;;5022264;28;20154;-62
2022/06/27 10:31:56;;;;;;;23.75;3.08;;;24.30;77.20;;;;;;5036965;28;20119;-61
2022/06/27 10:34:40;;;;;;;10.20;2.22;;;24.40;77.00;;;;;;5020663;28;20081;-61
2022/06/27 10:37:21;;;;;;;16.23;2.40;;;24.40;76.50;;;;;;5020508;28;20345;-62
2022/06/27 10:39:47;;;;;;;16.48;2.50;;;24.40;76.20;;;;;;5015676;28;20037;-61
2022/06/27 10:42:47;;;;;;;15.65;2.55;;;24.40;76.10;;;;;;5009952;28;21094;-61
2022/06/27 10:45:26;;;;;;;21.38;3.20;;;24.50;75.90;;;;;;4998934;28;20531;-62
2022/06/27 10:47:53;;;;;;;14.95;2.63;;;24.40;75.70;;;;;;5007194;28;20021;-61
2022/06/27 10:50:20;;;;;;;12.80;2.75;;;24.50;75.50;;;;;;5019295;28;20037;-62
2022/06/27 10:52:46;;;;;;;35.45;2.85;;;24.50;75.40;;;;;;5037774;28;20035;-62
2022/06/27 10:55:22;;;;;;;24.05;2.40;;;24.50;75.20;;;;;;5000792;28;20033;-62
2022/06/27 10:57:48;;;;;;;29.33;3.38;;;24.50;74.80;;;;;;5002516;28;20025;-62
2022/06/27 11:00:42;;;;;;;15.38;2.65;;;24.60;74.70;;;;;;5017423;28;20124;-61
2022/06/27 11:03:09;;;;;;;17.52;1.90;;;24.60;74.50;;;;;;5016566;28;20059;-62
2022/06/27 11:05:58;;;;;;;11.27;1.63;;;24.60;74.20;;;;;;5018130;28;20284;-62
2022/06/27 11:08:23;;;;;;;22.88;2.20;;;24.60;73.50;;;;;;5021230;28;20048;-61
2022/06/27 11:10:50;;;;;;;21.63;3.40;;;24.60;73.40;;;;;;5003391;28;20162;-62
2022/06/27 11:13:34;;;;;;;35.38;5.13;;;24.60;73.70;;;;;;5019500;28;20049;-62
2022/06/27 11:16:00;;;;;;;22.52;3.35;;;24.70;72.80;;;;;;5042240;28;20119;-62
2022/06/27 11:18:25;;;;;;;12.23;2.20;;;24.70;72.60;;;;;;5026078;28;20043;-61
2022/06/27 11:20:56;;;;;;;26.95;3.15;;;24.80;72.20;;;;;;5047196;28;20440;-61
2022/06/27 11:23:21;;;;;;;15.05;3.10;;;24.80;72.10;;;;;;5040637;28;20435;-62
2022/06/27 11:25:47;;;;;;;17.17;3.05;;;24.90;72.10;;;;;;5041118;28;20024;-62
2022/06/27 11:33:42;;;;;;;12.90;1.80;;;25.10;71.40;;;;;;5052254;28;20131;-62
2022/06/27 11:36:11;;;;;;;13.18;2.33;;;25.20;70.90;;;;;;5050351;28;20033;-62
2022/06/27 11:38:47;;;;;;;21.42;2.47;;;25.20;70.70;;;;;;5042428;28;20170;-62
2022/06/27 11:41:16;;;;;;;25.17;4.45;;;25.20;70.70;;;;;;5044607;28;20040;-62
2022/06/27 11:44:07;;;;;;;17.15;2.83;;;25.30;70.50;;;;;;5027137;28;20054;-62
2022/06/27 11:46:37;;;;;;;13.23;2.40;;;25.40;70.70;;;;;;5042211;28;20140;-62
2022/06/27 11:49:05;;;;;;;9.73;2.40;;;25.50;70.60;;;;;;5045136;28;20524;-62
2022/06/27 11:51:37;;;;;;;18.38;2.30;;;25.50;70.50;;;;;;5040386;28;20040;-62
2022/06/27 11:54:11;;;;;;;18.40;2.67;;;25.60;70.50;;;;;;5010948;28;20373;-61
2022/06/27 11:56:41;;;;;;;19.75;2.95;;;25.60;70.50;;;;;;5027835;28;20552;-61
2022/06/27 11:59:09;;;;;;;20.30;3.25;;;25.60;70.50;;;;;;5028546;28;20030;-64
2022/06/27 12:01:58;;;;;;;16.17;2.60;;;25.60;70.40;;;;;;5009859;28;20033;-62
2022/06/27 12:04:23;;;;;;;18.88;2.85;;;25.60;70.40;;;;;;5046296;28;20860;-63
2022/06/27 12:06:56;;;;;;;19.95;3.08;;;25.60;70.50;;;;;;5056196;28;20025;-62
2022/06/27 12:09:23;;;;;;;11.82;1.58;;;25.70;70.50;;;;;;5043414;28;20575;-61
2022/06/27 12:11:50;;;;;;;16.50;2.55;;;25.70;70.40;;;;;;5041565;28;20124;-62
2022/06/27 12:14:15;;;;;;;9.88;1.95;;;25.70;69.90;;;;;;5043885;28;20078;-62
2022/06/27 12:16:49;;;;;;;10.80;2.10;;;25.70;69.80;;;;;;5052011;28;20224;-62
2022/06/27 12:19:15;;;;;;;16.98;2.03;;;25.80;69.50;;;;;;5026744;28;20484;-62
2022/06/27 12:21:40;;;;;;;15.85;2.17;;;25.80;69.30;;;;;;5026545;28;20037;-62
2022/06/27 12:24:06;;;;;;;10.55;2.47;;;25.80;69.20;;;;;;5027865;28;20037;-63
2022/06/27 12:26:32;;;;;;;19.85;2.33;;;25.90;69.40;;;;;;5044052;28;20044;-62
2022/06/27 12:28:57;;;;;;;21.75;2.53;;;26.00;69.20;;;;;;5052739;28;20122;-62
2022/06/27 12:31:23;;;;;;;40.33;5.47;;;26.00;68.80;;;;;;5028615;28;20059;-62
2022/06/27 12:33:48;;;;;;;43.70;4.40;;;26.10;68.70;;;;;;5052648;28;21423;-62
2022/06/27 12:36:14;;;;;;;15.05;2.97;;;26.20;68.40;;;;;;5028319;28;20452;-62
2022/06/27 12:38:40;;;;;;;12.05;2.22;;;26.30;68.10;;;;;;5040645;28;20143;-62
2022/06/27 12:41:12;;;;;;;11.65;2.63;;;26.30;67.40;;;;;;5023916;28;20048;-63
2022/06/27 12:43:42;;;;;;;31.30;4.00;;;26.40;67.50;;;;;;5035948;28;20043;-63
2022/06/27 12:46:08;;;;;;;26.23;3.80;;;26.50;67.60;;;;;;5045276;28;20021;-63
2022/06/27 12:48:33;;;;;;;34.72;4.07;;;26.50;67.30;;;;;;5059592;28;20044;-61
2022/06/27 12:51:00;;;;;;;34.88;4.25;;;26.60;67.20;;;;;;5056048;28;20066;-62
2022/06/27 12:53:26;;;;;;;38.10;5.00;;;26.60;67.10;;;;;;5043316;28;20040;-63
2022/06/27 12:55:52;;;;;;;26.30;3.53;;;26.70;66.90;;;;;;5052742;28;20037;-61